Terminal Aerodrome Forecast
Issued by NWS Cleveland, OH

Home | Current Version | Previous Version | Graphics & Text | Print | Product List | Glossary On
Versions: 1 2 3 4 5 6 7 8 9 10 11 12 13 14 15
000
FTUS41 KCLE 311733
TAFCAK
TAF
KCAK 311733Z 3118/0118 28012G16KT P6SM SCT060
      TEMPO 3118/3122 BKN060
     FM010100 25006KT P6SM SKC
     FM011400 29010KT P6SM SCT250=

USA.gov is the U.S. government's official web portal to all federal, state and local government web resources and services.